createdAt,value
2023-09-28T00:01:23.530Z,40.42
2023-09-28T00:03:53.312Z,40.57
2023-09-28T00:06:21.560Z,40.73
2023-09-28T00:08:50.139Z,40.82
2023-09-28T00:11:18.020Z,40.73
2023-09-28T00:13:47.948Z,41.51
2023-09-28T00:16:15.757Z,41.52
2023-09-28T00:18:45.054Z,41.62
2023-09-28T00:21:31.702Z,41.82
2023-09-28T00:24:00.576Z,41.71
2023-09-28T00:26:28.074Z,41.69
2023-09-28T00:28:58.847Z,41.55
2023-09-28T00:31:26.347Z,41.79
2023-09-28T00:33:55.432Z,41.92
2023-09-28T00:36:23.846Z,42.01
2023-09-28T00:38:52.619Z,41.96
2023-09-28T00:41:20.558Z,41.79
2023-09-28T00:43:49.387Z,41.65
2023-09-28T00:46:19.319Z,41.78
2023-09-28T00:48:58.705Z,41.94
2023-09-28T00:51:29.162Z,41.62
2023-09-28T00:53:57.630Z,41.68
2023-09-28T00:56:26.956Z,41.75
2023-09-28T00:58:57.722Z,41.92
2023-09-28T01:01:30.608Z,41.89
2023-09-28T01:04:02.977Z,41.94
2023-09-28T01:06:32.180Z,41.65
2023-09-28T01:09:00.930Z,41.57
2023-09-28T01:11:29.540Z,41.47
2023-09-28T01:13:59.365Z,41.30
2023-09-28T01:16:28.471Z,41.47
2023-09-28T01:18:57.248Z,41.28
2023-09-28T01:21:26.019Z,41.22
2023-09-28T01:23:56.905Z,40.82
2023-09-28T01:26:24.541Z,40.90
2023-09-28T01:28:53.440Z,40.80
2023-09-28T01:31:21.097Z,40.54
2023-09-28T01:33:50.132Z,40.65
2023-09-28T01:36:18.776Z,40.80
2023-09-28T01:38:52.704Z,40.59
2023-09-28T01:41:22.559Z,40.48
2023-09-28T01:43:50.434Z,40.45
2023-09-28T01:46:19.115Z,40.31
2023-09-28T01:48:46.968Z,40.39
2023-09-28T01:51:15.401Z,40.16
2023-09-28T01:53:44.616Z,40.24
2023-09-28T01:56:13.235Z,40.41
2023-09-28T01:58:43.386Z,40.26
2023-09-28T02:01:22.155Z,40.30
2023-09-28T02:03:50.183Z,40.58
2023-09-28T02:06:19.824Z,40.54
2023-09-28T02:08:47.671Z,40.76
2023-09-28T02:11:17.123Z,40.88
2023-09-28T02:13:46.458Z,41.02
2023-09-28T02:16:14.994Z,41.47
2023-09-28T02:18:44.816Z,41.44
2023-09-28T02:21:15.431Z,41.56
2023-09-28T02:23:43.391Z,41.47
2023-09-28T02:26:11.967Z,41.40
2023-09-28T02:28:39.863Z,41.40
2023-09-28T02:31:10.434Z,42.01
2023-09-28T02:33:38.698Z,41.72
2023-09-28T02:36:07.538Z,41.37
2023-09-28T02:38:37.391Z,41.45
2023-09-28T02:41:05.941Z,41.24
2023-09-28T02:43:35.186Z,41.14
2023-09-28T02:46:04.516Z,40.98
2023-09-28T02:48:34.954Z,41.25
2023-09-28T02:51:04.500Z,41.31
2023-09-28T02:53:32.465Z,41.68
2023-09-28T02:56:01.088Z,41.52
2023-09-28T02:58:29.047Z,41.49
2023-09-28T03:00:59.194Z,41.65
2023-09-28T03:03:27.103Z,41.60
2023-09-28T03:05:57.359Z,41.58
2023-09-28T03:08:25.881Z,41.68
2023-09-28T03:10:54.730Z,41.46
2023-09-28T03:13:24.341Z,41.20
2023-09-28T03:15:53.106Z,40.94
2023-09-28T03:18:22.827Z,40.89
2023-09-28T03:20:51.601Z,41.08
2023-09-28T03:23:21.112Z,40.97
2023-09-28T03:25:49.703Z,40.87
2023-09-28T03:28:18.107Z,40.73
2023-09-28T03:30:46.697Z,41.02
2023-09-28T03:33:15.531Z,40.95
2023-09-28T03:35:43.218Z,40.75
2023-09-28T03:38:12.060Z,40.97
2023-09-28T03:40:44.767Z,40.96
2023-09-28T03:43:13.719Z,41.10
2023-09-28T03:45:42.702Z,41.31
2023-09-28T03:48:11.573Z,41.53
2023-09-28T03:50:40.275Z,41.18
2023-09-28T03:53:09.135Z,41.23
2023-09-28T03:55:37.729Z,41.21
2023-09-28T03:58:07.919Z,41.33
2023-09-28T04:00:36.550Z,41.13
2023-09-28T04:03:06.080Z,41.22
2023-09-28T04:05:34.637Z,41.12
2023-09-28T04:08:03.814Z,40.96
2023-09-28T04:10:34.617Z,40.91
2023-09-28T04:13:03.607Z,41.11
2023-09-28T04:15:33.503Z,41.06
2023-09-28T04:18:02.692Z,41.23
2023-09-28T04:20:31.275Z,41.25
2023-09-28T04:23:00.260Z,41.28
2023-09-28T04:25:30.702Z,41.72
2023-09-28T04:27:59.741Z,41.57
2023-09-28T04:30:28.837Z,41.61
2023-09-28T04:32:59.083Z,41.41
2023-09-28T04:35:27.833Z,41.54
2023-09-28T04:37:56.682Z,41.68
2023-09-28T04:40:26.990Z,41.34
2023-09-28T04:42:56.494Z,41.48
2023-09-28T04:45:25.209Z,41.78
2023-09-28T04:47:54.044Z,41.73
2023-09-28T04:50:24.339Z,42.01
2023-09-28T04:52:53.367Z,42.30
2023-09-28T04:55:22.503Z,42.45
2023-09-28T04:57:53.752Z,42.23
2023-09-28T05:00:22.486Z,42.29
2023-09-28T05:02:51.793Z,42.62
2023-09-28T05:05:20.764Z,42.51
2023-09-28T05:07:51.201Z,42.44
2023-09-28T05:10:19.974Z,42.12
2023-09-28T05:12:49.070Z,41.92
2023-09-28T05:15:18.203Z,41.84
2023-09-28T05:17:47.226Z,41.63
2023-09-28T05:20:16.039Z,41.34
2023-09-28T05:22:45.115Z,41.18
2023-09-28T05:25:14.078Z,40.90
2023-09-28T05:27:43.187Z,40.62
2023-09-28T05:30:13.328Z,40.74
2023-09-28T05:32:42.398Z,40.40
2023-09-28T05:35:11.753Z,40.55
2023-09-28T05:37:40.805Z,40.11
2023-09-28T05:40:11.169Z,39.91
2023-09-28T05:42:42.264Z,39.78
2023-09-28T05:45:12.008Z,39.38
2023-09-28T05:47:41.286Z,39.11
2023-09-28T05:50:10.653Z,38.87
2023-09-28T05:52:39.836Z,38.24
2023-09-28T05:55:09.185Z,38.06
2023-09-28T05:57:38.244Z,37.54
2023-09-28T06:00:10.806Z,37.33
2023-09-28T06:02:40.067Z,36.80
2023-09-28T06:05:11.174Z,36.76
2023-09-28T06:07:40.254Z,36.42
2023-09-28T06:10:10.468Z,36.14
2023-09-28T06:12:39.444Z,35.77
2023-09-28T06:15:10.736Z,35.20
2023-09-28T06:17:39.684Z,35.21
2023-09-28T06:20:10.413Z,34.99
2023-09-28T06:22:40.301Z,34.98
2023-09-28T06:25:10.140Z,34.31
2023-09-28T06:27:39.561Z,34.46
2023-09-28T06:30:11.403Z,33.98
2023-09-28T06:32:40.460Z,34.12
2023-09-28T06:35:11.448Z,33.49
2023-09-28T06:37:40.859Z,33.40
2023-09-28T06:40:10.531Z,33.29
2023-09-28T06:42:40.709Z,32.92
2023-09-28T06:45:13.734Z,33.19
2023-09-28T06:47:54.687Z,33.17
2023-09-28T06:50:31.645Z,32.97
2023-09-28T06:53:00.691Z,32.80
2023-09-28T06:55:29.379Z,32.76
2023-09-28T06:57:58.749Z,33.00
2023-09-28T07:00:30.671Z,32.16
2023-09-28T07:02:59.726Z,32.17
2023-09-28T07:05:28.636Z,32.07
2023-09-28T07:07:57.657Z,31.84
2023-09-28T07:10:26.419Z,31.80
2023-09-28T07:12:55.945Z,30.78
2023-09-28T07:15:24.651Z,30.90
2023-09-28T07:17:54.991Z,30.43
2023-09-28T07:20:24.029Z,30.47
2023-09-28T07:22:52.997Z,30.53
2023-09-28T07:25:22.535Z,30.18
2023-09-28T07:27:51.866Z,29.91
2023-09-28T07:30:21.562Z,29.95
2023-09-28T07:32:51.745Z,29.64
2023-09-28T07:35:22.285Z,30.13
2023-09-28T07:38:11.391Z,29.70
2023-09-28T07:40:47.433Z,29.58
2023-09-28T07:43:17.290Z,29.87
2023-09-28T07:45:46.253Z,30.12
2023-09-28T07:48:15.561Z,29.68
2023-09-28T07:50:45.794Z,30.08
2023-09-28T07:53:14.799Z,29.82
2023-09-28T07:55:43.656Z,29.27
2023-09-28T08:00:48.368Z,29.87
2023-09-28T08:03:17.502Z,29.60
2023-09-28T08:05:47.633Z,29.48
2023-09-28T08:08:18.958Z,29.54
2023-09-28T08:10:49.011Z,28.82
2023-09-28T08:13:19.078Z,28.46
2023-09-28T08:15:47.962Z,28.57
2023-09-28T08:18:16.947Z,28.94
2023-09-28T08:20:59.550Z,28.75
2023-09-28T08:23:37.326Z,28.65
2023-09-28T08:26:06.136Z,27.85
2023-09-28T08:28:35.085Z,28.13
2023-09-28T08:31:06.813Z,27.68
2023-09-28T08:33:35.794Z,27.94
2023-09-28T08:36:05.154Z,27.22
2023-09-28T08:38:34.163Z,27.58
2023-09-28T08:41:08.170Z,27.71
2023-09-28T08:43:44.128Z,27.24
2023-09-28T08:46:15.308Z,27.21
2023-09-28T08:48:47.687Z,26.44
2023-09-28T08:51:17.871Z,27.27
2023-09-28T08:53:51.297Z,27.26
2023-09-28T08:56:22.095Z,26.82
2023-09-28T08:58:51.994Z,26.60
2023-09-28T09:01:21.822Z,27.00
2023-09-28T09:03:51.599Z,26.42
2023-09-28T09:06:24.184Z,26.47
2023-09-28T09:08:56.559Z,26.59
2023-09-28T09:11:28.504Z,25.98
2023-09-28T09:13:58.229Z,25.86
2023-09-28T09:16:29.285Z,26.23
2023-09-28T09:18:59.422Z,26.24
2023-09-28T09:21:40.305Z,25.69
2023-09-28T09:24:11.795Z,25.58
2023-09-28T09:26:43.927Z,26.04
2023-09-28T09:29:14.045Z,26.08
2023-09-28T09:31:43.981Z,26.28
2023-09-28T09:34:13.851Z,25.84
2023-09-28T09:36:43.494Z,25.29
2023-09-28T09:39:23.683Z,25.47
2023-09-28T09:41:54.676Z,25.79
2023-09-28T09:44:25.701Z,26.17
2023-09-28T09:46:56.165Z,26.39
2023-09-28T09:49:27.470Z,25.42
2023-09-28T09:51:56.936Z,25.72
2023-09-28T09:54:26.008Z,25.52
2023-09-28T09:56:56.063Z,25.74
2023-09-28T09:59:25.428Z,25.63
2023-09-28T10:01:55.529Z,25.54
2023-09-28T10:04:27.755Z,25.53
2023-09-28T10:06:58.049Z,26.39
2023-09-28T10:09:28.990Z,25.62
2023-09-28T10:12:00.945Z,25.60
2023-09-28T10:14:30.098Z,26.12
2023-09-28T10:16:59.960Z,25.44
2023-09-28T10:19:30.145Z,26.30
2023-09-28T10:21:59.152Z,25.67
2023-09-28T10:24:33.071Z,25.19
2023-09-28T10:27:12.158Z,24.54
2023-09-28T10:29:42.515Z,24.73
2023-09-28T10:32:28.246Z,24.65
2023-09-28T10:35:29.758Z,24.29
2023-09-28T10:38:20.718Z,24.37
2023-09-28T10:40:53.357Z,24.50
2023-09-28T10:43:31.085Z,24.53
2023-09-28T10:46:03.372Z,24.30
2023-09-28T10:48:35.065Z,24.19
2023-09-28T10:51:04.612Z,24.46
2023-09-28T10:53:33.391Z,23.87
2023-09-28T10:56:04.921Z,24.17
2023-09-28T10:58:35.860Z,24.02
2023-09-28T11:01:07.863Z,24.23
2023-09-28T11:03:38.023Z,24.25
2023-09-28T11:06:09.598Z,23.62
2023-09-28T11:08:38.923Z,24.48
2023-09-28T11:11:08.158Z,23.91
2023-09-28T11:13:38.876Z,24.55
2023-09-28T11:16:08.712Z,23.34
2023-09-28T11:18:39.781Z,23.67
2023-09-28T11:21:09.247Z,23.78
2023-09-28T11:23:38.020Z,23.81
2023-09-28T11:26:07.439Z,23.50
2023-09-28T11:28:36.579Z,23.63
2023-09-28T11:31:10.623Z,23.13
2023-09-28T11:33:40.038Z,22.81
2023-09-28T11:36:12.688Z,22.84
2023-09-28T11:38:41.885Z,22.53
2023-09-28T11:41:10.936Z,22.28
2023-09-28T11:43:47.267Z,21.75
2023-09-28T11:46:20.447Z,22.18
2023-09-28T11:48:49.137Z,22.39
2023-09-28T11:51:18.478Z,22.70
2023-09-28T11:53:47.196Z,22.70
2023-09-28T11:56:17.936Z,22.38
2023-09-28T11:58:46.616Z,21.88
2023-09-28T12:01:15.672Z,21.78
2023-09-28T12:03:48.713Z,21.73
2023-09-28T12:06:19.090Z,21.64
2023-09-28T12:08:50.942Z,21.12
2023-09-28T12:11:20.484Z,21.24
2023-09-28T12:13:49.170Z,21.28
2023-09-28T12:16:18.176Z,21.18
2023-09-28T12:18:48.348Z,21.39
2023-09-28T12:21:17.483Z,21.90
2023-09-28T12:23:46.161Z,21.71
2023-09-28T12:26:15.579Z,21.03
2023-09-28T12:28:44.350Z,21.60
2023-09-28T12:31:13.665Z,22.08
2023-09-28T12:33:43.960Z,22.84
2023-09-28T12:36:15.641Z,22.21
2023-09-28T12:38:44.434Z,22.54
2023-09-28T12:41:13.560Z,23.22
2023-09-28T12:43:42.294Z,23.27
2023-09-28T12:46:12.316Z,23.46
2023-09-28T12:48:42.475Z,22.94
2023-09-28T12:51:12.368Z,23.13
2023-09-28T12:53:42.496Z,23.40
2023-09-28T12:56:11.614Z,23.10
2023-09-28T12:58:40.453Z,23.67
2023-09-28T13:01:11.392Z,23.63
2023-09-28T13:03:40.805Z,23.43
2023-09-28T13:06:10.852Z,23.69
2023-09-28T13:08:39.597Z,23.19
2023-09-28T13:11:15.057Z,24.11
2023-09-28T13:13:44.063Z,23.57
2023-09-28T13:16:14.772Z,24.07
2023-09-28T13:18:43.686Z,24.36
2023-09-28T13:21:15.196Z,23.89
2023-09-28T13:23:43.912Z,24.62
2023-09-28T13:26:15.070Z,23.97
2023-09-28T13:28:45.400Z,23.97
2023-09-28T13:31:15.299Z,23.83
2023-09-28T13:33:44.431Z,23.51
2023-09-28T13:36:16.122Z,23.84
2023-09-28T13:38:45.307Z,23.83
2023-09-28T13:41:15.911Z,24.11
2023-09-28T13:43:45.546Z,23.78
2023-09-28T13:46:14.653Z,23.77
2023-09-28T13:48:43.799Z,24.14
2023-09-28T13:51:13.178Z,24.39
2023-09-28T13:53:41.900Z,24.19
2023-09-28T13:56:11.356Z,23.95
2023-09-28T13:58:41.381Z,24.07
2023-09-28T14:01:14.876Z,23.49
2023-09-28T14:03:43.816Z,23.92
2023-09-28T14:06:15.302Z,24.25
2023-09-28T14:08:44.549Z,23.38
2023-09-28T14:11:13.983Z,23.64
2023-09-28T14:13:44.853Z,23.80
2023-09-28T14:16:13.845Z,23.32
2023-09-28T14:18:43.193Z,23.42
2023-09-28T14:21:12.529Z,23.92
2023-09-28T14:23:41.514Z,23.47
2023-09-28T14:26:10.691Z,23.49
2023-09-28T14:28:39.444Z,23.68
2023-09-28T14:31:10.323Z,24.24
2023-09-28T14:33:39.339Z,23.84
2023-09-28T14:36:08.701Z,23.82
2023-09-28T14:38:38.971Z,23.45
2023-09-28T14:41:08.074Z,23.91
2023-09-28T14:43:36.845Z,24.07
2023-09-28T14:46:05.885Z,23.80
2023-09-28T14:48:36.318Z,24.32
2023-09-28T14:51:05.318Z,23.57
2023-09-28T14:53:34.197Z,23.50
2023-09-28T14:56:03.619Z,24.41
2023-09-28T14:58:34.226Z,23.75
2023-09-28T15:01:03.337Z,23.59
2023-09-28T15:03:32.300Z,24.09
2023-09-28T15:06:03.811Z,24.16
2023-09-28T15:08:33.510Z,23.84
2023-09-28T15:11:03.262Z,23.87
2023-09-28T15:13:33.460Z,24.59
2023-09-28T15:16:02.510Z,24.08
2023-09-28T15:18:31.165Z,24.40
2023-09-28T15:21:00.202Z,24.68
2023-09-28T15:23:30.288Z,24.80
2023-09-28T15:26:03.673Z,24.86
2023-09-28T15:28:33.682Z,24.28
2023-09-28T15:31:02.721Z,24.71
2023-09-28T15:33:31.430Z,24.92
2023-09-28T15:36:00.636Z,25.09
2023-09-28T15:38:30.752Z,24.84
2023-09-28T15:40:59.931Z,24.92
2023-09-28T15:43:29.749Z,24.82
2023-09-28T15:45:58.846Z,25.07
2023-09-28T15:48:27.733Z,24.79
2023-09-28T15:50:56.779Z,25.40
2023-09-28T15:53:25.775Z,24.78
2023-09-28T15:55:56.202Z,25.28
2023-09-28T15:58:24.918Z,25.08
2023-09-28T16:00:53.894Z,25.50
2023-09-28T16:03:22.758Z,24.91
2023-09-28T16:05:51.863Z,25.23
2023-09-28T16:08:20.847Z,25.28
2023-09-28T16:10:50.050Z,25.44
2023-09-28T16:13:20.093Z,25.45
2023-09-28T16:15:49.177Z,25.22
2023-09-28T16:18:17.857Z,25.55
2023-09-28T16:20:46.896Z,25.65
2023-09-28T16:23:15.944Z,25.75
2023-09-28T16:25:44.980Z,25.82
2023-09-28T16:28:13.633Z,26.14
2023-09-28T16:30:44.032Z,26.37
2023-09-28T16:33:12.743Z,26.47
2023-09-28T16:35:41.870Z,26.67
2023-09-28T16:38:12.765Z,26.88
2023-09-28T16:40:42.018Z,26.61
2023-09-28T16:43:10.625Z,26.68
2023-09-28T16:45:39.798Z,26.49
2023-09-28T16:48:10.440Z,26.68
2023-09-28T16:50:39.717Z,26.69
2023-09-28T16:53:08.420Z,26.83
2023-09-28T16:55:37.449Z,26.71
2023-09-28T16:58:07.163Z,26.75
2023-09-28T17:00:36.157Z,26.75
2023-09-28T17:03:06.828Z,26.78
2023-09-28T17:05:37.469Z,27.00
2023-09-28T17:08:07.118Z,26.97
2023-09-28T17:10:36.170Z,27.11
2023-09-28T17:13:05.091Z,26.97
2023-09-28T17:15:34.497Z,27.10
2023-09-28T17:18:18.192Z,27.15
2023-09-28T17:20:51.635Z,27.35
2023-09-28T17:23:20.442Z,27.28
2023-09-28T17:25:51.186Z,27.43
2023-09-28T17:28:19.902Z,27.24
2023-09-28T17:30:48.977Z,27.36
2023-09-28T17:33:17.722Z,27.55
2023-09-28T17:35:46.818Z,27.74
2023-09-28T17:38:17.028Z,27.74
2023-09-28T17:40:46.101Z,27.61
2023-09-28T17:43:14.756Z,27.75
2023-09-28T17:45:45.289Z,27.88
2023-09-28T17:48:14.189Z,27.86
2023-09-28T17:50:43.704Z,27.83
2023-09-28T17:53:13.326Z,27.81
2023-09-28T17:55:44.625Z,28.02
2023-09-28T17:58:13.280Z,28.10
2023-09-28T18:00:42.356Z,28.02
2023-09-28T18:03:11.119Z,28.05
2023-09-28T18:05:40.285Z,28.17
2023-09-28T18:08:09.300Z,28.17
2023-09-28T18:10:38.401Z,28.21
2023-09-28T18:13:08.869Z,28.08
2023-09-28T18:15:38.562Z,28.24
2023-09-28T18:18:07.731Z,28.32
2023-09-28T18:20:36.802Z,28.49
2023-09-28T18:23:05.907Z,28.58
2023-09-28T18:25:35.175Z,28.63
2023-09-28T18:28:06.148Z,28.59
2023-09-28T18:30:36.570Z,28.60
2023-09-28T18:33:05.727Z,28.70
2023-09-28T18:35:34.921Z,28.90
2023-09-28T18:38:04.020Z,28.84
2023-09-28T18:40:33.158Z,28.72
2023-09-28T18:43:01.928Z,29.04
2023-09-28T18:45:30.871Z,29.02
2023-09-28T18:48:00.912Z,28.89
2023-09-28T18:50:30.004Z,29.24
2023-09-28T18:52:58.751Z,29.59
2023-09-28T18:55:29.114Z,30.02
2023-09-28T18:57:57.810Z,30.58
2023-09-28T19:00:27.255Z,29.84
2023-09-28T19:02:56.123Z,30.27
2023-09-28T19:05:26.690Z,30.10
2023-09-28T19:07:55.472Z,30.80
2023-09-28T19:10:24.474Z,30.39
2023-09-28T19:12:53.174Z,30.30
2023-09-28T19:15:22.429Z,30.57
2023-09-28T19:17:55.521Z,31.02
2023-09-28T19:20:26.840Z,31.37
2023-09-28T19:22:55.812Z,30.96
2023-09-28T19:25:24.758Z,31.01
2023-09-28T19:27:53.997Z,31.33
2023-09-28T19:30:23.912Z,32.21
2023-09-28T19:32:52.681Z,31.44
2023-09-28T19:35:21.921Z,30.61
2023-09-28T19:37:52.195Z,30.52
2023-09-28T19:40:21.730Z,30.73
2023-09-28T19:42:50.418Z,30.88
2023-09-28T19:45:19.766Z,31.41
2023-09-28T19:47:48.573Z,31.50
2023-09-28T19:50:18.570Z,32.28
2023-09-28T19:52:47.220Z,32.67
2023-09-28T19:55:17.806Z,31.99
2023-09-28T19:57:46.498Z,31.45
2023-09-28T20:00:16.453Z,33.08
2023-09-28T20:02:45.088Z,33.63
2023-09-28T20:05:14.212Z,33.17
2023-09-28T20:07:42.966Z,33.62
2023-09-28T20:10:12.516Z,33.91
2023-09-28T20:12:43.265Z,34.30
2023-09-28T20:15:12.875Z,32.93
2023-09-28T20:17:42.150Z,34.00
2023-09-28T20:20:12.650Z,33.76
2023-09-28T20:22:55.741Z,35.20
2023-09-28T20:25:26.159Z,35.30
2023-09-28T20:27:56.276Z,33.63
2023-09-28T20:30:25.373Z,34.04
2023-09-28T20:32:54.493Z,33.73
2023-09-28T20:35:23.693Z,33.84
2023-09-28T20:37:52.518Z,32.94
2023-09-28T20:40:21.675Z,33.40
2023-09-28T20:42:50.448Z,33.50
2023-09-28T20:45:21.313Z,33.21
2023-09-28T20:47:50.168Z,34.31
2023-09-28T20:50:19.188Z,34.98
2023-09-28T20:52:48.437Z,34.72
2023-09-28T20:55:18.273Z,35.94
2023-09-28T20:57:47.531Z,35.63
2023-09-28T21:00:17.182Z,36.45
2023-09-28T21:02:47.420Z,36.32
2023-09-28T21:05:16.579Z,36.59
2023-09-28T21:07:45.943Z,36.62
2023-09-28T21:10:15.374Z,35.72
2023-09-28T21:12:44.130Z,36.23
2023-09-28T21:15:13.327Z,35.52
2023-09-28T21:17:42.230Z,36.33
2023-09-28T21:20:14.932Z,34.42
2023-09-28T21:22:43.994Z,33.93
2023-09-28T21:25:12.964Z,34.82
2023-09-28T21:27:41.690Z,36.32
2023-09-28T21:30:12.648Z,34.84
2023-09-28T21:32:41.348Z,34.27
2023-09-28T21:35:10.988Z,34.03
2023-09-28T21:37:42.249Z,34.03
2023-09-28T21:40:12.212Z,33.43
2023-09-28T21:42:41.483Z,33.81
2023-09-28T21:45:11.459Z,33.61
2023-09-28T21:47:40.322Z,33.55
2023-09-28T21:50:09.928Z,33.43
2023-09-28T21:52:38.842Z,33.06
2023-09-28T21:55:09.955Z,33.53
2023-09-28T21:57:38.599Z,33.20
2023-09-28T22:00:30.230Z,33.63
2023-09-28T22:02:58.993Z,33.13
2023-09-28T22:05:28.560Z,33.72
2023-09-28T22:07:57.395Z,33.66
2023-09-28T22:10:28.219Z,33.48
2023-09-28T22:12:57.210Z,33.41
2023-09-28T22:15:26.347Z,33.19
2023-09-28T22:17:56.183Z,34.15
2023-09-28T22:20:25.747Z,34.98
2023-09-28T22:22:54.636Z,36.38
2023-09-28T22:25:23.626Z,37.15
2023-09-28T22:27:54.049Z,38.27
2023-09-28T22:30:23.459Z,37.67
2023-09-28T22:32:52.306Z,37.10
2023-09-28T22:35:22.118Z,35.98
2023-09-28T22:37:50.940Z,36.43
2023-09-28T22:40:28.608Z,37.27
2023-09-28T22:42:59.554Z,36.89
2023-09-28T22:45:28.698Z,37.62
2023-09-28T22:47:57.817Z,39.66
2023-09-28T22:50:26.935Z,40.38
2023-09-28T22:52:55.626Z,41.13
2023-09-28T22:55:24.642Z,41.08
2023-09-28T22:57:53.360Z,40.65
2023-09-28T23:00:23.810Z,40.58
2023-09-28T23:02:52.512Z,40.40
2023-09-28T23:05:21.734Z,40.60
2023-09-28T23:07:50.532Z,40.60
2023-09-28T23:10:19.559Z,40.38
2023-09-28T23:12:49.355Z,40.36
2023-09-28T23:15:18.556Z,40.58
2023-09-28T23:17:49.002Z,40.61
2023-09-28T23:20:23.984Z,40.21
2023-09-28T23:22:53.567Z,40.22
2023-09-28T23:25:22.892Z,39.53
2023-09-28T23:27:52.228Z,40.00
2023-09-28T23:30:21.683Z,39.86
2023-09-28T23:32:53.333Z,40.35
2023-09-28T23:35:25.300Z,39.92
2023-09-28T23:37:56.016Z,40.30
2023-09-28T23:40:25.656Z,40.49
2023-09-28T23:42:55.933Z,40.76
2023-09-28T23:45:29.179Z,40.72
2023-09-28T23:48:01.154Z,40.59
2023-09-28T23:50:30.398Z,40.69
2023-09-28T23:52:59.035Z,40.33
2023-09-28T23:55:28.185Z,40.28
2023-09-28T23:57:56.891Z,39.83
